Tuttle, Idaho
Current Conditions -  °F | °C
As of 9:53 AM on Monday 22 Dec 2014 (Local Time) from KJER Reporting Station
Overcast Overcast  
Wind Chill: -3°   Ceiling: 500
Heat Index:   Visibility: 10mi
Dew Point:   Wind: 23mph
Humidity: 93%   Direction: 250°WSW
Pressure: 30.06"   Gusts: 30mph
Location:  43.0634°N, 114.867°W
Report Text: KJER 221653Z AUTO 25020G26KT 10SM OVC005 03/02 A3006 RMK AO2 PK WND 25031/1638 SLP190 T00280017
Loading
Personal Weather Stations






























Interactive Weather Map New forecast layout! Learn more

10-Day Weather Forecast

Advertisements
Track Severe Weather on mobile